South Vineland, New Jersey
Current Conditions -  °F | °C
As of 10:54 AM on Friday 21 Nov 2014 (Local Time) from KMIV Reporting Station
Few Clouds Few Clouds  
Wind Chill: 21°   Ceiling: Unl
Heat Index: 33°   Visibility: 10mi
Dew Point:   Wind: 21mph
Humidity: 34%   Direction: 300°WNW
Pressure: 30.38"   Gusts: 29mph
Location:  39.5016°N, 75.0264°W
Report Text: KMIV 211554Z AUTO 30018G25KT 10SM FEW060 01/M14 A3038 RMK AO2 PK WND 31027/1526 SLP287 T00061139
Loading
Personal Weather Stations






























Interactive Weather Map New forecast layout! Learn more

10-Day Weather Forecast

Advertisements
Track Severe Weather on mobile